Washington Dulles International Airport
KIAD : now visible

Airfield :











YOU CAN JOIN US ON...

 
LOGIN :

Register | Disclaimer

   EN    FR    IT 

 









Legend :    VFR   Marginal VFR   IFR   Intensive IFR   Very Intensive IFR
Visi :
Ceiling :
>= 8 km
>= 3000ft
5 to 8 km
1000 to 3000 ft
1500m to 5 km
500 to 1000 ft
800 to 1500m
200 to 500 ft
< 800m
< 200 ft
Symbols :   Thunderstorms  Fog  Heavy snow  Heavy precipitations  Wind > 20 kt






- Airport Elevation : 312 ft
- IATA code : IAD


KIAD - Washington Dulles International

CURRENT METAR :
  • 281052Z 29007KT 10SM OVC070 13/07 A2965 RMK AO2 SLP039 T01280067

EXPIRED METARs :
  • 280952Z 27005KT 10SM OVC060 10/09 A2962 RMK AO2 SLP030 T01000094
  • 280852Z 10003KT 10SM OVC065 10/09 A2961 RMK AO2 SLP025 T01000094 53015

TAF KIAD
Valid from the 28 at 09:00 until the 29 at 12:00 UTC


280857Z 2809/2912 24007KT P6SM OVC060 WS020/24030KT
TEMPO 2809/2810 10003KT
FM281200 28010G18KT P6SM BKN050
FM281400 30013G24KT P6SM BKN050
FM281700 32014G24KT P6SM BKN050
FM282200 32009KT P6SM BKN070
FM290100 32005KT P6SM FEW250
KZDC FIR / North America



MET'MAP, your aeronautical weather chart ! - Copyright ORBIFLY December 2007 - Disclaimer

ORBIFLY MET'MAP TEAM :

Programming & Development : Alexandra Zaïnal
Original concept : Baudouin d'Aumeries
Technical & hardware support : Manuel Goepfert
Assistance : Marc-Olivier Méhu




SOURCES & CREDITS :

   NOAA       Earth
Advisory